createdAt,value
2023-03-01T00:01:20.029Z,73.40
2023-03-01T00:03:48.330Z,73.40
2023-03-01T00:06:15.933Z,73.50
2023-03-01T00:08:43.342Z,73.60
2023-03-01T00:11:19.570Z,73.60
2023-03-01T00:13:48.220Z,73.70
2023-03-01T00:16:21.696Z,73.80
2023-03-01T00:18:49.306Z,73.90
2023-03-01T00:21:16.751Z,73.90
2023-03-01T00:23:44.730Z,73.70
2023-03-01T00:26:14.879Z,73.70
2023-03-01T00:28:43.556Z,73.70
2023-03-01T00:31:14.176Z,73.60
2023-03-01T00:33:42.055Z,73.40
2023-03-01T00:36:11.592Z,73.40
2023-03-01T00:38:42.956Z,73.50
2023-03-01T00:41:13.204Z,73.80
2023-03-01T00:43:40.925Z,74.10
2023-03-01T00:46:21.321Z,74.30
2023-03-01T00:48:49.076Z,74.60
2023-03-01T00:51:17.617Z,74.60
2023-03-01T00:53:46.113Z,74.50
2023-03-01T00:56:15.587Z,74.70
2023-03-01T00:58:43.407Z,74.70
2023-03-01T01:01:19.991Z,74.80
2023-03-01T01:03:53.265Z,74.90
2023-03-01T01:06:51.896Z,75.00
2023-03-01T01:09:19.715Z,75.20
2023-03-01T01:11:52.328Z,75.20
2023-03-01T01:14:20.582Z,75.00
2023-03-01T01:16:47.958Z,75.10
2023-03-01T01:19:16.472Z,75.70
2023-03-01T01:21:44.260Z,74.80
2023-03-01T01:24:12.269Z,75.00
2023-03-01T01:26:39.621Z,75.20
2023-03-01T01:29:07.544Z,75.00
2023-03-01T01:31:36.467Z,74.80
2023-03-01T01:34:06.356Z,74.70
2023-03-01T01:36:35.385Z,74.70
2023-03-01T01:39:02.768Z,74.60
2023-03-01T01:41:30.399Z,74.40
2023-03-01T01:44:18.472Z,74.40
2023-03-01T01:46:50.610Z,74.30
2023-03-01T01:49:27.857Z,74.30
2023-03-01T01:52:21.734Z,74.90
2023-03-01T01:54:49.062Z,74.40
2023-03-01T01:57:22.956Z,74.50
2023-03-01T01:59:55.730Z,74.40
2023-03-01T02:02:23.599Z,74.40
2023-03-01T02:04:56.623Z,74.50
2023-03-01T02:07:25.695Z,74.50
2023-03-01T02:09:53.873Z,74.50
2023-03-01T02:12:25.174Z,74.20
2023-03-01T02:14:52.613Z,74.10
2023-03-01T02:17:20.800Z,74.20
2023-03-01T02:20:15.597Z,74.20
2023-03-01T02:22:45.909Z,74.00
2023-03-01T02:25:24.985Z,74.00
2023-03-01T02:28:11.987Z,74.00
2023-03-01T02:30:59.489Z,74.20
2023-03-01T02:33:27.958Z,74.30
2023-03-01T02:35:56.819Z,74.40
2023-03-01T02:38:25.015Z,74.40
2023-03-01T02:40:53.156Z,74.40
2023-03-01T02:43:24.940Z,74.60
2023-03-01T02:45:54.085Z,74.50
2023-03-01T02:48:21.828Z,74.70
2023-03-01T02:51:11.149Z,75.20
2023-03-01T02:54:13.114Z,74.40
2023-03-01T02:56:41.663Z,74.30
2023-03-01T02:59:10.224Z,74.20
2023-03-01T03:01:37.790Z,74.30
2023-03-01T03:04:17.974Z,74.30
2023-03-01T03:06:50.113Z,74.20
2023-03-01T03:09:19.790Z,74.10
2023-03-01T03:11:47.909Z,74.30
2023-03-01T03:14:17.469Z,75.00
2023-03-01T03:16:49.867Z,74.30
2023-03-01T03:19:19.636Z,74.60
2023-03-01T03:21:47.633Z,74.60
2023-03-01T03:24:14.961Z,74.50
2023-03-01T03:26:42.422Z,74.50
2023-03-01T03:29:09.744Z,74.60
2023-03-01T03:31:37.155Z,74.50
2023-03-01T03:34:04.695Z,74.60
2023-03-01T03:36:32.104Z,74.50
2023-03-01T03:38:59.460Z,74.40
2023-03-01T03:41:26.783Z,74.50
2023-03-01T03:43:54.196Z,74.50
2023-03-01T03:46:21.595Z,74.70
2023-03-01T03:48:50.721Z,74.70
2023-03-01T03:51:19.258Z,74.70
2023-03-01T03:53:47.247Z,74.80
2023-03-01T03:56:14.609Z,74.90
2023-03-01T03:58:41.982Z,75.00
2023-03-01T04:01:09.380Z,75.30
2023-03-01T04:03:36.699Z,75.10
2023-03-01T04:06:05.241Z,75.10
2023-03-01T04:08:32.872Z,75.20
2023-03-01T04:11:24.942Z,75.40
2023-03-01T04:13:54.283Z,75.50
2023-03-01T04:16:21.622Z,74.90
2023-03-01T04:18:49.245Z,74.70
2023-03-01T04:21:16.880Z,74.50
2023-03-01T04:23:44.262Z,74.70
2023-03-01T04:26:11.706Z,74.70
2023-03-01T04:28:44.017Z,74.60
2023-03-01T04:31:18.625Z,74.50
2023-03-01T04:33:56.474Z,74.50
2023-03-01T04:36:26.384Z,74.70
2023-03-01T04:38:54.466Z,74.70
2023-03-01T04:41:24.299Z,74.70
2023-03-01T04:43:51.941Z,74.70
2023-03-01T04:46:21.301Z,74.90
2023-03-01T04:48:48.878Z,74.90
2023-03-01T04:51:16.778Z,74.70
2023-03-01T04:53:45.311Z,74.90
2023-03-01T04:56:14.745Z,75.00
2023-03-01T04:58:42.530Z,75.00
2023-03-01T05:01:18.118Z,75.00
2023-03-01T05:03:47.351Z,75.00
2023-03-01T05:06:15.509Z,75.10
2023-03-01T05:08:43.798Z,75.00
2023-03-01T05:11:11.440Z,74.80
2023-03-01T05:13:40.158Z,74.80
2023-03-01T05:16:12.132Z,74.90
2023-03-01T05:18:41.053Z,74.70
2023-03-01T05:21:12.069Z,74.70
2023-03-01T05:23:39.681Z,74.80
2023-03-01T05:26:16.268Z,74.70
2023-03-01T05:28:49.701Z,74.70
2023-03-01T05:31:17.037Z,74.50
2023-03-01T05:33:44.666Z,74.40
2023-03-01T05:36:12.613Z,74.40
2023-03-01T05:38:40.002Z,74.40
2023-03-01T05:41:15.874Z,74.60
2023-03-01T05:43:46.027Z,74.70
2023-03-01T05:46:14.608Z,74.80
2023-03-01T05:48:42.172Z,74.80
2023-03-01T05:51:09.429Z,74.90
2023-03-01T05:53:36.718Z,74.90
2023-03-01T05:56:05.502Z,75.00
2023-03-01T05:58:33.124Z,75.00
2023-03-01T06:01:00.428Z,74.90
2023-03-01T06:03:27.728Z,74.90
2023-03-01T06:05:59.303Z,74.70
2023-03-01T06:08:28.190Z,74.50
2023-03-01T06:10:55.753Z,74.40
2023-03-01T06:13:24.505Z,74.40
2023-03-01T06:15:52.858Z,74.30
2023-03-01T06:18:20.497Z,74.10
2023-03-01T06:20:57.185Z,74.10
2023-03-01T06:23:25.660Z,73.90
2023-03-01T06:25:54.029Z,73.70
2023-03-01T06:28:22.552Z,73.80
2023-03-01T06:30:51.190Z,73.60
2023-03-01T06:33:20.996Z,73.60
2023-03-01T06:35:48.611Z,73.50
2023-03-01T06:38:15.996Z,73.60
2023-03-01T06:40:43.575Z,73.40
2023-03-01T06:43:11.246Z,73.40
2023-03-01T06:45:38.765Z,73.30
2023-03-01T06:48:07.444Z,73.10
2023-03-01T06:50:36.011Z,72.80
2023-03-01T06:53:04.236Z,72.50
2023-03-01T06:55:32.159Z,72.10
2023-03-01T06:58:00.390Z,72.20
2023-03-01T07:00:28.269Z,72.40
2023-03-01T07:02:56.027Z,72.20
2023-03-01T07:05:23.300Z,72.20
2023-03-01T07:07:50.576Z,72.10
2023-03-01T07:10:17.853Z,71.90
2023-03-01T07:12:45.241Z,72.50
2023-03-01T07:15:12.712Z,71.90
2023-03-01T07:17:39.958Z,71.90
2023-03-01T07:20:07.663Z,72.00
2023-03-01T07:22:34.919Z,71.70
2023-03-01T07:25:02.157Z,71.90
2023-03-01T07:27:29.378Z,71.80
2023-03-01T07:29:57.005Z,71.90
2023-03-01T07:32:24.354Z,72.10
2023-03-01T07:34:53.013Z,72.00
2023-03-01T07:37:20.476Z,72.10
2023-03-01T07:39:47.808Z,72.10
2023-03-01T07:42:15.242Z,71.90
2023-03-01T07:44:42.567Z,71.90
2023-03-01T07:47:10.198Z,71.40
2023-03-01T07:49:37.455Z,71.00
2023-03-01T07:52:04.971Z,70.90
2023-03-01T07:54:32.296Z,70.70
2023-03-01T07:56:59.544Z,70.20
2023-03-01T07:59:30.060Z,70.00
2023-03-01T08:01:58.197Z,70.10
2023-03-01T08:04:28.497Z,69.80
2023-03-01T08:06:56.488Z,69.30
2023-03-01T08:09:23.898Z,68.90
2023-03-01T08:11:51.373Z,68.40
2023-03-01T08:14:18.787Z,67.70
2023-03-01T08:16:46.141Z,67.90
2023-03-01T08:19:13.732Z,66.80
2023-03-01T08:21:41.933Z,66.50
2023-03-01T08:24:11.333Z,66.10
2023-03-01T08:26:38.670Z,65.70
2023-03-01T08:29:06.170Z,65.30
2023-03-01T08:31:38.850Z,65.10
2023-03-01T08:34:09.526Z,64.30
2023-03-01T08:36:40.148Z,64.20
2023-03-01T08:39:10.582Z,63.80
2023-03-01T08:41:37.874Z,63.40
2023-03-01T08:44:05.522Z,62.60
2023-03-01T08:46:38.793Z,61.90
2023-03-01T08:49:08.036Z,61.90
2023-03-01T08:51:37.772Z,62.00
2023-03-01T08:54:06.579Z,61.80
2023-03-01T08:56:34.671Z,61.70
2023-03-01T08:59:01.993Z,62.10
2023-03-01T09:01:29.279Z,61.90
2023-03-01T09:03:56.587Z,62.10
2023-03-01T09:06:24.068Z,60.70
2023-03-01T09:08:52.086Z,60.30
2023-03-01T09:11:22.512Z,60.20
2023-03-01T09:13:50.381Z,59.60
2023-03-01T09:16:20.258Z,59.70
2023-03-01T09:18:54.362Z,59.40
2023-03-01T09:21:37.614Z,58.90
2023-03-01T09:24:07.319Z,59.10
2023-03-01T09:26:34.715Z,58.80
2023-03-01T09:29:01.991Z,58.80
2023-03-01T09:31:29.397Z,57.90
2023-03-01T09:33:56.629Z,57.60
2023-03-01T09:36:26.459Z,57.20
2023-03-01T09:38:54.261Z,56.90
2023-03-01T09:41:39.732Z,56.10
2023-03-01T09:44:09.968Z,55.30
2023-03-01T09:46:43.261Z,55.50
2023-03-01T09:49:20.185Z,56.40
2023-03-01T09:51:58.796Z,55.30
2023-03-01T09:54:26.195Z,54.70
2023-03-01T09:57:11.594Z,55.00
2023-03-01T10:00:24.427Z,54.80
2023-03-01T10:03:18.790Z,53.80
2023-03-01T10:05:52.044Z,54.10
2023-03-01T10:08:32.010Z,54.00
2023-03-01T10:10:59.787Z,53.80
2023-03-01T10:13:31.195Z,53.80
2023-03-01T10:16:16.403Z,54.00
2023-03-01T10:18:47.317Z,53.90
2023-03-01T10:21:18.223Z,53.50
2023-03-01T10:23:46.706Z,53.30
2023-03-01T10:26:48.060Z,53.60
2023-03-01T10:29:15.849Z,53.20
2023-03-01T10:31:49.516Z,53.00
2023-03-01T10:34:32.598Z,53.10
2023-03-01T10:37:10.839Z,52.50
2023-03-01T10:39:38.196Z,52.30
2023-03-01T10:42:20.735Z,51.90
2023-03-01T10:44:49.564Z,50.50
2023-03-01T10:47:23.250Z,51.10
2023-03-01T10:50:23.855Z,51.40
2023-03-01T10:53:03.693Z,51.60
2023-03-01T10:55:40.463Z,51.80
2023-03-01T10:58:28.604Z,52.20
2023-03-01T11:01:01.385Z,52.20
2023-03-01T11:03:34.842Z,52.30
2023-03-01T11:06:04.916Z,51.60
2023-03-01T11:08:40.173Z,51.50
2023-03-01T11:11:10.814Z,51.80
2023-03-01T11:13:51.615Z,52.10
2023-03-01T11:16:32.642Z,52.30
2023-03-01T11:19:22.280Z,52.20
2023-03-01T11:22:14.360Z,52.20
2023-03-01T11:24:43.679Z,52.30
2023-03-01T11:27:17.449Z,51.90
2023-03-01T11:29:57.637Z,52.80
2023-03-01T11:32:29.053Z,52.40
2023-03-01T11:35:15.782Z,52.60
2023-03-01T11:38:20.950Z,52.10
2023-03-01T11:41:00.910Z,51.30
2023-03-01T11:43:47.696Z,51.70
2023-03-01T11:46:33.517Z,51.30
2023-03-01T11:49:29.879Z,51.90
2023-03-01T11:52:20.542Z,52.10
2023-03-01T11:54:47.770Z,52.20
2023-03-01T11:57:41.094Z,51.20
2023-03-01T12:00:40.952Z,51.00
2023-03-01T12:03:36.012Z,51.10
2023-03-01T12:06:15.227Z,50.80
2023-03-01T12:08:50.501Z,51.30
2023-03-01T12:11:55.986Z,52.00
2023-03-01T12:14:50.489Z,51.50
2023-03-01T12:17:33.085Z,51.60
2023-03-01T12:20:22.954Z,51.60
2023-03-01T12:23:20.330Z,51.50
2023-03-01T12:26:07.790Z,51.30
2023-03-01T12:28:44.136Z,51.40
2023-03-01T12:31:29.285Z,51.10
2023-03-01T12:34:07.219Z,51.10
2023-03-01T12:37:12.233Z,51.50
2023-03-01T12:39:42.518Z,51.20
2023-03-01T12:42:35.104Z,50.90
2023-03-01T12:45:08.176Z,50.90
2023-03-01T12:47:38.222Z,50.80
2023-03-01T12:50:24.537Z,50.70
2023-03-01T12:52:56.605Z,50.50
2023-03-01T12:55:27.466Z,50.60
2023-03-01T12:58:16.302Z,50.40
2023-03-01T13:01:03.103Z,50.50
2023-03-01T13:04:12.629Z,50.70
2023-03-01T13:06:46.545Z,51.20
2023-03-01T13:09:25.668Z,51.50
2023-03-01T13:11:53.078Z,51.60
2023-03-01T13:14:26.077Z,51.70
2023-03-01T13:16:54.525Z,51.80
2023-03-01T13:19:27.209Z,51.80
2023-03-01T13:21:56.104Z,52.20
2023-03-01T13:24:31.104Z,52.40
2023-03-01T13:27:07.777Z,52.10
2023-03-01T13:29:53.299Z,51.60
2023-03-01T13:32:34.593Z,51.60
2023-03-01T13:35:15.282Z,51.10
2023-03-01T13:37:43.387Z,51.90
2023-03-01T13:40:31.089Z,52.60
2023-03-01T13:43:18.918Z,52.60
2023-03-01T13:45:47.508Z,52.80
2023-03-01T13:48:22.578Z,52.70
2023-03-01T13:51:01.681Z,52.60
2023-03-01T13:53:34.350Z,51.90
2023-03-01T13:56:08.127Z,52.50
2023-03-01T13:58:51.485Z,52.90
2023-03-01T14:01:30.625Z,53.30
2023-03-01T14:03:58.827Z,53.40
2023-03-01T14:06:32.628Z,53.90
2023-03-01T14:09:28.329Z,53.90
2023-03-01T14:12:14.041Z,54.00
2023-03-01T14:14:45.026Z,54.20
2023-03-01T14:17:26.321Z,53.90
2023-03-01T14:20:05.222Z,54.20
2023-03-01T14:22:36.590Z,54.40
2023-03-01T14:25:22.816Z,54.50
2023-03-01T14:28:15.487Z,54.70
2023-03-01T14:30:44.426Z,55.10
2023-03-01T14:33:30.216Z,55.40
2023-03-01T14:36:08.110Z,55.80
2023-03-01T14:38:40.989Z,55.80
2023-03-01T14:41:20.902Z,56.00
2023-03-01T14:43:52.656Z,56.20
2023-03-01T14:46:37.622Z,56.60
2023-03-01T14:49:21.858Z,56.40
2023-03-01T14:52:05.410Z,56.50
2023-03-01T14:54:43.126Z,56.80
2023-03-01T14:57:26.450Z,57.00
2023-03-01T15:00:07.144Z,56.90
2023-03-01T15:02:36.250Z,56.90
2023-03-01T15:05:08.631Z,56.90
2023-03-01T15:07:42.560Z,56.70
2023-03-01T15:10:21.537Z,57.10
2023-03-01T15:12:49.046Z,57.20
2023-03-01T15:15:39.054Z,57.20
2023-03-01T15:18:20.170Z,57.30
2023-03-01T15:20:49.496Z,57.60
2023-03-01T15:23:27.218Z,57.60
2023-03-01T15:25:57.476Z,57.70
2023-03-01T15:28:34.692Z,58.00
2023-03-01T15:31:13.526Z,58.00
2023-03-01T15:33:48.419Z,58.10
2023-03-01T15:36:45.301Z,58.10
2023-03-01T15:39:39.019Z,58.50
2023-03-01T15:42:35.472Z,58.50
2023-03-01T15:45:24.490Z,58.50
2023-03-01T15:48:03.163Z,58.40
2023-03-01T15:50:34.283Z,58.50
2023-03-01T15:53:05.598Z,58.70
2023-03-01T15:55:34.345Z,58.90
2023-03-01T15:58:10.740Z,59.00
2023-03-01T16:00:40.911Z,59.00
2023-03-01T16:03:14.643Z,59.20
2023-03-01T16:05:41.933Z,59.20
2023-03-01T16:08:09.492Z,59.10
2023-03-01T16:10:37.113Z,59.90
2023-03-01T16:13:04.544Z,59.30
2023-03-01T16:15:35.520Z,59.50
2023-03-01T16:18:03.802Z,59.60
2023-03-01T16:20:33.762Z,59.50
2023-03-01T16:23:07.508Z,59.40
2023-03-01T16:25:36.744Z,59.60
2023-03-01T16:28:10.178Z,59.80
2023-03-01T16:30:40.846Z,60.00
2023-03-01T16:33:27.046Z,60.00
2023-03-01T16:35:57.578Z,60.00
2023-03-01T16:38:24.985Z,60.10
2023-03-01T16:40:53.547Z,60.30
2023-03-01T16:43:20.881Z,60.40
2023-03-01T16:45:48.302Z,60.40
2023-03-01T16:48:15.960Z,60.60
2023-03-01T16:50:43.610Z,60.70
2023-03-01T16:53:11.946Z,60.90
2023-03-01T16:55:46.358Z,60.80
2023-03-01T16:58:14.353Z,60.90
2023-03-01T17:00:41.794Z,61.00
2023-03-01T17:03:09.250Z,61.00
2023-03-01T17:05:36.683Z,61.30
2023-03-01T17:08:04.065Z,61.40
2023-03-01T17:10:31.465Z,61.40
2023-03-01T17:12:59.189Z,61.60
2023-03-01T17:15:26.624Z,62.40
2023-03-01T17:17:54.242Z,61.80
2023-03-01T17:20:22.991Z,61.80
2023-03-01T17:22:50.237Z,61.80
2023-03-01T17:25:17.902Z,62.10
2023-03-01T17:27:45.362Z,62.10
2023-03-01T17:30:14.268Z,62.20
2023-03-01T17:32:42.381Z,62.50
2023-03-01T17:35:12.186Z,62.70
2023-03-01T17:37:39.943Z,62.70
2023-03-01T17:40:07.858Z,62.80
2023-03-01T17:42:35.184Z,62.70
2023-03-01T17:45:02.552Z,62.90
2023-03-01T17:47:29.914Z,64.00
2023-03-01T17:49:57.320Z,64.20
2023-03-01T17:52:24.800Z,64.40
2023-03-01T17:54:52.080Z,64.60
2023-03-01T17:57:19.336Z,64.70
2023-03-01T17:59:46.981Z,64.90
2023-03-01T18:02:15.633Z,65.10
2023-03-01T18:04:42.915Z,65.30
2023-03-01T18:07:10.191Z,65.40
2023-03-01T18:09:37.831Z,65.60
2023-03-01T18:12:07.095Z,65.90
2023-03-01T18:14:36.576Z,66.10
2023-03-01T18:17:09.490Z,66.30
2023-03-01T18:19:39.417Z,66.60
2023-03-01T18:22:08.410Z,66.80
2023-03-01T18:24:38.394Z,67.00
2023-03-01T18:27:06.430Z,67.20
2023-03-01T18:29:34.025Z,67.30
2023-03-01T18:32:01.561Z,68.30
2023-03-01T18:34:28.923Z,67.80
2023-03-01T18:37:08.788Z,68.10
2023-03-01T18:39:37.016Z,68.30
2023-03-01T18:42:04.772Z,68.40
2023-03-01T18:44:33.652Z,68.50
2023-03-01T18:47:01.249Z,68.60
2023-03-01T18:49:28.684Z,68.90
2023-03-01T18:51:56.784Z,69.30
2023-03-01T18:54:24.611Z,69.20
2023-03-01T18:56:52.314Z,69.40
2023-03-01T18:59:19.573Z,69.50
2023-03-01T19:01:49.114Z,69.70
2023-03-01T19:04:16.445Z,70.00
2023-03-01T19:06:43.682Z,70.10
2023-03-01T19:09:11.524Z,70.30
2023-03-01T19:11:38.960Z,70.60
2023-03-01T19:14:06.327Z,70.50
2023-03-01T19:16:35.794Z,70.70
2023-03-01T19:19:04.893Z,70.80
2023-03-01T19:21:33.190Z,70.90
2023-03-01T19:24:02.425Z,71.00
2023-03-01T19:26:31.377Z,71.00
2023-03-01T19:28:59.414Z,71.10
2023-03-01T19:31:29.334Z,71.20
2023-03-01T19:34:16.086Z,71.50
2023-03-01T19:36:44.512Z,71.70
2023-03-01T19:39:13.924Z,71.60
2023-03-01T19:41:42.653Z,71.60
2023-03-01T19:44:10.936Z,71.60
2023-03-01T19:46:38.793Z,71.60
2023-03-01T19:49:06.811Z,71.90
2023-03-01T19:51:36.428Z,72.00
2023-03-01T19:54:05.988Z,72.20
2023-03-01T19:56:34.585Z,72.40
2023-03-01T19:59:04.327Z,72.30
2023-03-01T20:01:33.285Z,72.20
2023-03-01T20:04:01.951Z,72.40
2023-03-01T20:06:30.432Z,72.50
2023-03-01T20:09:00.613Z,72.60
2023-03-01T20:11:29.900Z,72.70
2023-03-01T20:13:57.315Z,72.90
2023-03-01T20:16:26.871Z,73.10
2023-03-01T20:18:55.029Z,73.20
2023-03-01T20:21:24.846Z,73.40
2023-03-01T20:23:52.956Z,73.60
2023-03-01T20:26:25.356Z,73.70
2023-03-01T20:28:55.021Z,73.80
2023-03-01T20:31:28.624Z,73.80
2023-03-01T20:33:57.562Z,73.90
2023-03-01T20:36:25.951Z,73.60
2023-03-01T20:38:56.487Z,73.70
2023-03-01T20:41:26.886Z,74.00
2023-03-01T20:43:56.425Z,74.50
2023-03-01T20:46:26.544Z,74.70
2023-03-01T20:48:54.784Z,74.40
2023-03-01T20:51:22.221Z,74.30
2023-03-01T20:53:49.921Z,74.30
2023-03-01T20:56:18.983Z,74.60
2023-03-01T20:59:04.451Z,74.80
2023-03-01T21:01:32.036Z,75.10
2023-03-01T21:03:59.397Z,75.10
2023-03-01T21:06:26.658Z,75.40
2023-03-01T21:08:56.305Z,75.60
2023-03-01T21:11:25.378Z,75.50
2023-03-01T21:13:53.670Z,75.00
2023-03-01T21:16:21.398Z,74.40
2023-03-01T21:18:49.492Z,74.50
2023-03-01T21:21:21.528Z,74.70
2023-03-01T21:23:49.568Z,74.90
2023-03-01T21:26:20.252Z,74.80
2023-03-01T21:28:50.113Z,74.80
2023-03-01T21:31:20.860Z,74.70
2023-03-01T21:33:53.661Z,75.40
2023-03-01T21:36:22.751Z,74.70
2023-03-01T21:38:51.682Z,74.70
2023-03-01T21:41:20.432Z,74.80
2023-03-01T21:43:49.290Z,74.70
2023-03-01T21:46:20.031Z,74.80
2023-03-01T21:48:49.374Z,74.90
2023-03-01T21:51:18.904Z,74.80
2023-03-01T21:53:46.491Z,74.70
2023-03-01T21:56:19.709Z,74.70
2023-03-01T21:58:47.792Z,74.80
2023-03-01T22:01:17.724Z,74.80
2023-03-01T22:03:45.792Z,74.80
2023-03-01T22:06:20.471Z,74.60
2023-03-01T22:08:50.216Z,74.60
2023-03-01T22:11:19.621Z,74.70
2023-03-01T22:13:51.793Z,74.70
2023-03-01T22:16:22.842Z,74.80
2023-03-01T22:18:50.177Z,74.60
2023-03-01T22:21:18.448Z,74.40
2023-03-01T22:23:45.956Z,74.30
2023-03-01T22:26:27.474Z,74.30
2023-03-01T22:28:57.606Z,74.30
2023-03-01T22:31:26.140Z,74.20
2023-03-01T22:33:54.952Z,74.10
2023-03-01T22:36:22.859Z,74.10
2023-03-01T22:38:52.252Z,74.10
2023-03-01T22:41:19.473Z,74.30
2023-03-01T22:43:47.106Z,74.40
2023-03-01T22:46:17.656Z,74.50
2023-03-01T22:48:46.361Z,74.90
2023-03-01T22:51:15.159Z,76.00
2023-03-01T22:53:42.676Z,75.40
2023-03-01T22:56:22.213Z,75.40
2023-03-01T22:58:49.820Z,75.60
2023-03-01T23:01:23.219Z,75.70
2023-03-01T23:03:50.822Z,75.80
2023-03-01T23:06:19.830Z,76.00
2023-03-01T23:08:55.986Z,76.20
2023-03-01T23:11:24.492Z,76.80
2023-03-01T23:13:52.888Z,77.20
2023-03-01T23:16:26.735Z,77.40
2023-03-01T23:18:55.883Z,77.40
2023-03-01T23:21:23.227Z,77.40
2023-03-01T23:23:50.971Z,77.40
2023-03-01T23:26:19.101Z,77.10
2023-03-01T23:28:47.651Z,76.80
2023-03-01T23:31:15.846Z,76.80
2023-03-01T23:33:45.470Z,76.70
2023-03-01T23:36:19.293Z,76.80
2023-03-01T23:38:48.305Z,76.70
2023-03-01T23:41:18.201Z,76.50
2023-03-01T23:43:50.652Z,76.30
2023-03-01T23:46:20.275Z,76.10
2023-03-01T23:48:47.831Z,76.20
2023-03-01T23:51:17.750Z,76.30
2023-03-01T23:53:54.525Z,76.00
2023-03-01T23:56:27.403Z,75.70
2023-03-01T23:58:57.257Z,75.30
